createdAt,value
2023-02-11T00:00:48.407Z,53.17
2023-02-11T00:03:16.070Z,51.53
2023-02-11T00:05:43.594Z,48.27
2023-02-11T00:08:16.890Z,42.07
2023-02-11T00:10:46.483Z,43.83
2023-02-11T00:13:13.928Z,41.87
2023-02-11T00:15:41.466Z,40.87
2023-02-11T00:18:08.928Z,39.30
2023-02-11T00:20:36.362Z,41.80
2023-02-11T00:23:03.834Z,43.83
2023-02-11T00:25:31.304Z,43.63
2023-02-11T00:28:00.192Z,49.30
2023-02-11T00:30:27.746Z,38.40
2023-02-11T00:32:55.231Z,56.30
2023-02-11T00:35:30.509Z,52.23
2023-02-11T00:37:58.106Z,44.63
2023-02-11T00:40:25.700Z,51.23
2023-02-11T00:42:53.149Z,47.93
2023-02-11T00:45:21.994Z,45.10
2023-02-11T00:47:49.434Z,42.13
2023-02-11T00:50:16.864Z,40.43
2023-02-11T00:52:44.444Z,47.40
2023-02-11T00:55:11.895Z,42.27
2023-02-11T00:57:39.392Z,42.10
2023-02-11T01:00:08.755Z,76.77
2023-02-11T01:02:37.501Z,40.20
2023-02-11T01:05:05.297Z,40.63
2023-02-11T01:07:33.084Z,54.70
2023-02-11T01:10:00.522Z,51.60
2023-02-11T01:12:28.016Z,46.20
2023-02-11T01:14:55.493Z,39.13
2023-02-11T01:17:22.956Z,51.20
2023-02-11T01:19:51.766Z,49.97
2023-02-11T01:22:19.233Z,46.37
2023-02-11T01:24:46.661Z,53.13
2023-02-11T01:27:14.154Z,47.20
2023-02-11T01:29:41.716Z,51.37
2023-02-11T01:32:09.270Z,79.07
2023-02-11T01:34:36.751Z,41.37
2023-02-11T01:37:05.527Z,41.40
2023-02-11T01:39:34.895Z,39.57
2023-02-11T01:42:02.830Z,43.00
2023-02-11T01:44:33.109Z,41.33
2023-02-11T01:47:00.727Z,42.10
2023-02-11T01:49:31.089Z,43.33
2023-02-11T01:52:04.547Z,40.37
2023-02-11T01:54:55.073Z,34.70
2023-02-11T01:57:25.631Z,45.60
2023-02-11T02:00:02.141Z,36.40
2023-02-11T02:02:35.368Z,39.97
2023-02-11T02:05:09.278Z,40.20
2023-02-11T02:07:42.305Z,37.97
2023-02-11T02:10:22.379Z,42.70
2023-02-11T02:12:50.102Z,45.97
2023-02-11T02:15:27.432Z,40.80
2023-02-11T02:18:07.644Z,38.87
2023-02-11T02:21:10.010Z,49.53
2023-02-11T02:23:55.129Z,42.57
2023-02-11T02:26:53.891Z,42.00
2023-02-11T02:29:52.555Z,49.10
2023-02-11T02:32:50.641Z,35.37
2023-02-11T02:35:29.508Z,39.70
2023-02-11T02:38:02.700Z,39.53
2023-02-11T02:40:33.210Z,43.97
2023-02-11T02:43:02.593Z,47.40
2023-02-11T02:45:30.224Z,45.63
2023-02-11T02:47:59.066Z,87.63
2023-02-11T02:50:31.960Z,53.63
2023-02-11T02:53:12.754Z,47.03
2023-02-11T02:55:53.527Z,41.80
2023-02-11T02:58:49.339Z,39.53
2023-02-11T03:01:27.572Z,44.90
2023-02-11T03:04:04.478Z,44.40
2023-02-11T03:06:37.965Z,42.77
2023-02-11T03:09:11.453Z,45.90
2023-02-11T03:11:40.676Z,42.63
2023-02-11T03:14:14.262Z,51.00
2023-02-11T03:16:44.368Z,48.93
2023-02-11T03:19:16.785Z,42.47
2023-02-11T03:21:45.590Z,45.40
2023-02-11T03:24:19.626Z,42.80
2023-02-11T03:26:51.021Z,43.37
2023-02-11T03:29:31.799Z,41.97
2023-02-11T03:32:05.462Z,45.83
2023-02-11T03:34:41.891Z,48.07
2023-02-11T03:37:13.973Z,47.77
2023-02-11T03:39:46.023Z,61.20
2023-02-11T03:42:15.653Z,44.70
2023-02-11T03:44:48.611Z,55.43
2023-02-11T03:47:20.889Z,46.80
2023-02-11T03:49:50.654Z,44.37
2023-02-11T03:52:20.903Z,47.53
2023-02-11T03:54:52.399Z,46.83
2023-02-11T03:57:20.075Z,45.90
2023-02-11T03:59:52.550Z,44.10
2023-02-11T04:02:21.281Z,39.20
2023-02-11T04:04:49.996Z,48.30
2023-02-11T04:07:17.453Z,45.63
2023-02-11T04:09:44.908Z,47.67
2023-02-11T04:12:12.426Z,44.07
2023-02-11T04:14:40.159Z,44.73
2023-02-11T04:17:07.586Z,47.77
2023-02-11T04:19:35.036Z,42.40
2023-02-11T04:22:03.913Z,47.40
2023-02-11T04:24:31.809Z,44.77
2023-02-11T04:26:59.442Z,42.83
2023-02-11T04:29:28.141Z,42.30
2023-02-11T04:31:56.213Z,46.73
2023-02-11T04:34:24.457Z,47.83
2023-02-11T04:36:52.676Z,43.40
2023-02-11T04:39:21.520Z,45.27
2023-02-11T04:41:48.938Z,54.13
2023-02-11T04:44:16.435Z,45.70
2023-02-11T04:46:43.870Z,52.63
2023-02-11T04:49:13.707Z,47.63
2023-02-11T04:51:41.316Z,59.97
2023-02-11T04:54:09.053Z,48.13
2023-02-11T04:56:38.165Z,47.87
2023-02-11T04:59:06.235Z,50.03
2023-02-11T05:01:33.905Z,48.90
2023-02-11T05:04:01.582Z,48.53
2023-02-11T05:06:29.132Z,51.20
2023-02-11T05:08:56.605Z,50.37
2023-02-11T05:11:25.607Z,49.63
2023-02-11T05:13:54.547Z,53.43
2023-02-11T05:16:21.985Z,54.70
2023-02-11T05:18:52.437Z,49.83
2023-02-11T05:21:20.535Z,49.97
2023-02-11T05:23:48.364Z,51.90
2023-02-11T05:26:16.365Z,49.90
2023-02-11T05:28:44.599Z,48.67
2023-02-11T05:31:14.591Z,59.60
2023-02-11T05:33:42.807Z,48.43
2023-02-11T05:36:12.665Z,52.80
2023-02-11T05:38:40.703Z,50.97
2023-02-11T05:41:08.124Z,52.67
2023-02-11T05:43:36.642Z,55.17
2023-02-11T05:46:05.098Z,53.80
2023-02-11T05:48:34.420Z,54.37
2023-02-11T05:51:01.858Z,57.27
2023-02-11T05:53:29.323Z,54.27
2023-02-11T05:55:57.412Z,56.03
2023-02-11T05:58:24.861Z,57.63
2023-02-11T06:00:52.305Z,54.13
2023-02-11T06:03:19.808Z,54.70
2023-02-11T06:05:48.777Z,55.53
2023-02-11T06:08:16.480Z,62.10
2023-02-11T06:10:46.186Z,55.43
2023-02-11T06:13:13.953Z,57.43
2023-02-11T06:15:41.460Z,61.23
2023-02-11T06:18:09.616Z,57.87
2023-02-11T06:20:37.238Z,57.07
2023-02-11T06:23:05.969Z,58.83
2023-02-11T06:25:33.505Z,59.30
2023-02-11T06:28:00.903Z,62.70
2023-02-11T06:30:28.339Z,60.33
2023-02-11T06:32:55.799Z,57.03
2023-02-11T06:35:23.232Z,64.87
2023-02-11T06:37:50.825Z,60.30
2023-02-11T06:40:19.901Z,62.00
2023-02-11T06:42:47.294Z,63.30
2023-02-11T06:45:14.712Z,62.87
2023-02-11T06:47:42.548Z,61.13
2023-02-11T06:50:13.091Z,63.10
2023-02-11T06:52:40.625Z,66.23
2023-02-11T06:55:08.276Z,65.03
2023-02-11T06:57:37.142Z,65.67
2023-02-11T07:00:05.877Z,66.17
2023-02-11T07:02:33.469Z,62.10
2023-02-11T07:05:00.948Z,65.80
2023-02-11T07:07:28.615Z,63.17
2023-02-11T07:09:56.105Z,66.33
2023-02-11T07:12:23.555Z,61.47
2023-02-11T07:14:52.949Z,66.03
2023-02-11T07:17:20.385Z,57.90
2023-02-11T07:19:47.813Z,62.70
2023-02-11T07:22:15.287Z,70.97
2023-02-11T07:24:42.901Z,65.60
2023-02-11T07:27:10.371Z,68.80
2023-02-11T07:29:37.789Z,62.67
2023-02-11T07:32:06.861Z,66.13
2023-02-11T07:34:34.427Z,67.47
2023-02-11T07:37:01.944Z,64.63
2023-02-11T07:39:29.480Z,65.47
2023-02-11T07:41:57.366Z,61.03
2023-02-11T07:44:24.910Z,61.60
2023-02-11T07:46:52.439Z,63.13
2023-02-11T07:49:21.334Z,57.77
2023-02-11T07:51:49.233Z,61.97
2023-02-11T07:54:16.643Z,62.43
2023-02-11T07:56:44.210Z,57.93
2023-02-11T07:59:12.594Z,60.93
2023-02-11T08:01:40.145Z,67.20
2023-02-11T08:04:07.627Z,63.77
2023-02-11T08:06:36.675Z,63.47
2023-02-11T08:09:05.774Z,65.40
2023-02-11T08:11:33.954Z,57.10
2023-02-11T08:14:01.568Z,61.23
2023-02-11T08:16:31.604Z,58.47
2023-02-11T08:19:00.558Z,59.57
2023-02-11T08:21:28.751Z,59.43
2023-02-11T08:23:58.079Z,66.97
2023-02-11T08:26:27.444Z,58.80
2023-02-11T08:28:56.415Z,62.23
2023-02-11T08:31:26.170Z,65.40
2023-02-11T08:33:54.829Z,63.37
2023-02-11T08:36:24.960Z,70.73
2023-02-11T08:39:05.678Z,60.10
2023-02-11T08:41:41.168Z,59.57
2023-02-11T08:44:08.712Z,64.07
2023-02-11T08:46:36.214Z,60.20
2023-02-11T08:49:04.876Z,66.53
2023-02-11T08:51:32.717Z,64.13
2023-02-11T08:54:01.037Z,62.00
2023-02-11T08:56:30.796Z,62.07
2023-02-11T08:58:59.673Z,62.13
2023-02-11T09:01:29.672Z,57.60
2023-02-11T09:03:57.720Z,51.83
2023-02-11T09:06:26.462Z,64.53
2023-02-11T09:08:55.712Z,61.73
2023-02-11T09:11:27.234Z,56.07
2023-02-11T09:13:54.897Z,61.33
2023-02-11T09:16:26.026Z,57.60
2023-02-11T09:18:54.292Z,58.47
2023-02-11T09:21:21.774Z,56.77
2023-02-11T09:23:51.160Z,59.60
2023-02-11T09:26:20.370Z,60.37
2023-02-11T09:28:48.419Z,58.43
2023-02-11T09:31:19.237Z,50.07
2023-02-11T09:33:49.815Z,50.10
2023-02-11T09:36:19.633Z,56.43
2023-02-11T09:38:48.705Z,56.40
2023-02-11T09:41:28.690Z,51.97
2023-02-11T09:43:58.380Z,53.83
2023-02-11T09:46:28.755Z,52.90
2023-02-11T09:48:57.998Z,54.83
2023-02-11T09:51:34.375Z,59.55
2023-02-11T09:54:06.647Z,53.20
2023-02-11T09:56:34.414Z,48.10
2023-02-11T09:59:01.930Z,51.53
2023-02-11T10:01:38.904Z,55.70
2023-02-11T10:04:15.540Z,70.80
2023-02-11T10:06:46.299Z,56.03
2023-02-11T10:09:26.758Z,51.77
2023-02-11T10:12:04.617Z,53.37
2023-02-11T10:14:55.468Z,51.60
2023-02-11T10:17:33.645Z,57.83
2023-02-11T10:20:17.175Z,51.70
2023-02-11T10:22:50.239Z,56.23
2023-02-11T10:25:23.324Z,52.40
2023-02-11T10:27:52.131Z,53.17
2023-02-11T10:30:29.485Z,57.63
2023-02-11T10:33:03.997Z,52.37
2023-02-11T10:35:33.407Z,57.73
2023-02-11T10:38:01.575Z,54.20
2023-02-11T10:40:31.310Z,55.07
2023-02-11T10:43:03.737Z,55.13
2023-02-11T10:45:34.607Z,31.83
2023-02-11T10:48:02.662Z,32.00
2023-02-11T10:50:33.428Z,29.23
2023-02-11T10:53:17.216Z,27.37
2023-02-11T10:55:52.145Z,27.07
2023-02-11T10:58:28.992Z,35.23
2023-02-11T11:00:58.053Z,27.27
2023-02-11T11:03:28.345Z,27.73
2023-02-11T11:05:59.719Z,20.77
2023-02-11T11:08:42.594Z,28.70
2023-02-11T11:11:12.068Z,27.97
2023-02-11T11:13:41.696Z,27.43
2023-02-11T11:16:21.685Z,24.23
2023-02-11T11:18:50.622Z,24.93
2023-02-11T11:21:22.260Z,27.90
2023-02-11T11:23:57.284Z,38.27
2023-02-11T11:26:27.658Z,33.73
2023-02-11T11:28:59.839Z,37.20
2023-02-11T11:31:31.377Z,39.83
2023-02-11T11:34:01.467Z,38.30
2023-02-11T11:36:36.153Z,43.23
2023-02-11T11:39:19.700Z,42.43
2023-02-11T11:41:52.352Z,43.67
2023-02-11T11:44:26.380Z,40.53
2023-02-11T11:47:14.633Z,40.77
2023-02-11T11:49:48.471Z,42.27
2023-02-11T11:52:26.532Z,39.17
2023-02-11T11:55:03.942Z,44.00
2023-02-11T11:57:35.120Z,40.90
2023-02-11T12:00:02.694Z,58.43
2023-02-11T12:02:51.981Z,40.00
2023-02-11T12:05:27.115Z,38.00
2023-02-11T12:08:04.786Z,38.43
2023-02-11T12:10:55.920Z,39.00
2023-02-11T12:13:35.078Z,36.53
2023-02-11T12:16:10.524Z,37.57
2023-02-11T12:19:00.289Z,34.37
2023-02-11T12:21:42.757Z,32.37
2023-02-11T12:24:36.015Z,32.13
2023-02-11T12:27:09.587Z,32.37
2023-02-11T12:29:53.309Z,34.37
2023-02-11T12:32:31.983Z,33.43
2023-02-11T12:35:23.793Z,31.93
2023-02-11T12:38:10.400Z,30.90
2023-02-11T12:40:44.947Z,29.20
2023-02-11T12:43:21.431Z,27.83
2023-02-11T12:46:09.146Z,30.53
2023-02-11T12:49:04.185Z,31.90
2023-02-11T12:51:45.195Z,25.97
2023-02-11T12:54:22.578Z,29.50
2023-02-11T12:56:54.479Z,29.33
2023-02-11T12:59:35.744Z,27.13
2023-02-11T13:02:13.557Z,27.80
2023-02-11T13:04:48.009Z,25.67
2023-02-11T13:07:20.314Z,26.03
2023-02-11T13:09:54.516Z,26.70
2023-02-11T13:12:40.438Z,29.37
2023-02-11T13:15:15.352Z,27.80
2023-02-11T13:17:51.027Z,28.07
2023-02-11T13:20:28.073Z,26.87
2023-02-11T13:23:02.811Z,27.37
2023-02-11T13:25:37.222Z,28.40
2023-02-11T13:28:21.310Z,28.67
2023-02-11T13:30:57.648Z,27.17
2023-02-11T13:33:33.905Z,28.33
2023-02-11T13:36:21.921Z,26.40
2023-02-11T13:39:10.909Z,31.67
2023-02-11T13:41:41.398Z,24.83
2023-02-11T13:44:34.561Z,26.57
2023-02-11T13:47:05.924Z,26.70
2023-02-11T13:49:40.391Z,24.20
2023-02-11T13:52:22.678Z,28.50
2023-02-11T13:54:52.747Z,27.50
2023-02-11T13:57:33.536Z,22.50
2023-02-11T14:00:03.279Z,25.17
2023-02-11T14:02:52.139Z,26.47
2023-02-11T14:05:47.229Z,25.10
2023-02-11T14:08:41.180Z,23.67
2023-02-11T14:11:25.248Z,25.57
2023-02-11T14:14:18.361Z,24.63
2023-02-11T14:17:22.407Z,23.97
2023-02-11T14:19:51.826Z,26.43
2023-02-11T14:22:25.863Z,25.57
2023-02-11T14:24:56.520Z,26.37
2023-02-11T14:27:29.121Z,22.97
2023-02-11T14:30:11.730Z,25.50
2023-02-11T14:32:49.975Z,23.73
2023-02-11T14:35:25.722Z,23.67
2023-02-11T14:38:03.215Z,22.93
2023-02-11T14:40:34.959Z,19.13
2023-02-11T14:43:12.688Z,20.37
2023-02-11T14:45:41.232Z,22.53
2023-02-11T14:48:15.811Z,26.57
2023-02-11T14:50:48.782Z,20.07
2023-02-11T14:53:19.272Z,21.07
2023-02-11T14:55:48.655Z,20.50
2023-02-11T14:58:18.215Z,21.03
2023-02-11T15:00:51.153Z,20.13
2023-02-11T15:03:36.690Z,20.60
2023-02-11T15:06:08.764Z,19.27
2023-02-11T15:08:39.131Z,19.43
2023-02-11T15:11:12.970Z,20.77
2023-02-11T15:13:47.329Z,20.67
2023-02-11T15:16:18.494Z,18.83
2023-02-11T15:18:48.951Z,20.93
2023-02-11T15:21:23.434Z,20.70
2023-02-11T15:23:58.589Z,18.60
2023-02-11T15:26:26.131Z,19.37
2023-02-11T15:28:53.657Z,20.47
2023-02-11T15:31:24.146Z,18.90
2023-02-11T15:33:52.800Z,18.17
2023-02-11T15:36:28.385Z,20.73
2023-02-11T15:39:18.509Z,18.17
2023-02-11T15:41:46.260Z,18.10
2023-02-11T15:44:29.593Z,18.67
2023-02-11T15:46:57.217Z,19.23
2023-02-11T15:49:25.369Z,18.27
2023-02-11T15:51:56.885Z,16.47
2023-02-11T15:54:27.316Z,16.70
2023-02-11T15:56:59.825Z,21.23
2023-02-11T15:59:31.495Z,18.50
2023-02-11T16:02:06.535Z,17.47
2023-02-11T16:04:34.190Z,15.80
2023-02-11T16:07:03.169Z,17.33
2023-02-11T16:09:35.453Z,15.60
2023-02-11T16:12:07.418Z,19.13
2023-02-11T16:14:39.132Z,15.67
2023-02-11T16:17:10.099Z,18.13
2023-02-11T16:19:43.551Z,17.73
2023-02-11T16:22:16.739Z,17.40
2023-02-11T16:24:48.536Z,15.27
2023-02-11T16:27:22.926Z,16.30
2023-02-11T16:29:51.973Z,19.00
2023-02-11T16:32:21.486Z,13.97
2023-02-11T16:34:49.428Z,16.07
2023-02-11T16:37:18.212Z,14.40
2023-02-11T16:39:46.601Z,13.87
2023-02-11T16:42:14.291Z,15.67
2023-02-11T16:44:41.822Z,13.63
2023-02-11T16:47:20.409Z,12.87
2023-02-11T16:49:47.893Z,15.07
2023-02-11T16:52:18.709Z,13.57
2023-02-11T16:54:46.207Z,13.40
2023-02-11T16:57:16.200Z,13.83
2023-02-11T16:59:44.026Z,14.00
2023-02-11T17:02:16.579Z,13.73
2023-02-11T17:04:44.963Z,16.00
2023-02-11T17:07:12.494Z,15.60
2023-02-11T17:09:41.391Z,16.17
2023-02-11T17:12:08.836Z,15.33
2023-02-11T17:14:36.271Z,15.70
2023-02-11T17:17:03.976Z,15.60
2023-02-11T17:19:31.708Z,15.50
2023-02-11T17:21:59.161Z,17.07
2023-02-11T17:24:26.560Z,15.13
2023-02-11T17:26:55.728Z,13.80
2023-02-11T17:29:25.294Z,14.13
2023-02-11T17:31:53.901Z,13.67
2023-02-11T17:34:22.465Z,13.77
2023-02-11T17:36:50.031Z,13.40
2023-02-11T17:39:17.490Z,13.70
2023-02-11T17:41:44.911Z,12.90
2023-02-11T17:44:14.098Z,15.30
2023-02-11T17:46:41.541Z,11.67
2023-02-11T17:49:09.033Z,12.43
2023-02-11T17:51:38.463Z,12.87
2023-02-11T17:54:08.125Z,13.30
2023-02-11T17:56:37.361Z,13.77
2023-02-11T17:59:06.544Z,13.73
2023-02-11T18:01:36.664Z,11.63
2023-02-11T18:04:05.648Z,12.60
2023-02-11T18:06:33.749Z,12.20
2023-02-11T18:09:04.156Z,11.30
2023-02-11T18:11:32.732Z,11.43
2023-02-11T18:14:01.067Z,10.87
2023-02-11T18:16:29.921Z,12.27
2023-02-11T18:18:59.743Z,11.00
2023-02-11T18:21:27.683Z,11.07
2023-02-11T18:23:56.932Z,11.27
2023-02-11T18:26:28.034Z,11.60
2023-02-11T18:28:57.525Z,12.80
2023-02-11T18:31:26.365Z,10.87
2023-02-11T18:33:54.762Z,12.73
2023-02-11T18:36:24.108Z,11.00
2023-02-11T18:38:53.601Z,11.80
2023-02-11T18:41:21.513Z,11.13
2023-02-11T18:43:48.968Z,12.37
2023-02-11T18:46:17.240Z,11.37
2023-02-11T18:48:45.748Z,10.60
2023-02-11T18:51:15.827Z,12.37
2023-02-11T18:53:44.730Z,10.60
2023-02-11T18:56:14.114Z,10.57
2023-02-11T18:58:41.610Z,10.77
2023-02-11T19:01:15.117Z,11.10
2023-02-11T19:03:43.101Z,10.30
2023-02-11T19:06:16.648Z,9.90
2023-02-11T19:08:45.436Z,10.00
2023-02-11T19:11:14.539Z,10.50
2023-02-11T19:13:42.084Z,10.50
2023-02-11T19:16:11.448Z,10.63
2023-02-11T19:18:39.840Z,11.00
2023-02-11T19:21:08.704Z,11.43
2023-02-11T19:23:37.877Z,11.03
2023-02-11T19:26:06.713Z,10.97
2023-02-11T19:28:35.267Z,11.20
2023-02-11T19:31:07.180Z,11.87
2023-02-11T19:33:34.768Z,12.17
2023-02-11T19:36:07.121Z,11.97
2023-02-11T19:38:35.226Z,12.17
2023-02-11T19:41:02.876Z,10.47
2023-02-11T19:43:31.721Z,11.13
2023-02-11T19:45:59.160Z,11.13
2023-02-11T19:48:26.770Z,12.00
2023-02-11T19:50:54.584Z,12.43
2023-02-11T19:53:22.254Z,11.07
2023-02-11T19:55:50.433Z,11.47
2023-02-11T19:58:18.558Z,11.87
2023-02-11T20:00:47.334Z,11.77
2023-02-11T20:03:14.722Z,12.23
2023-02-11T20:05:46.976Z,10.27
2023-02-11T20:08:14.493Z,12.47
2023-02-11T20:10:41.913Z,12.13
2023-02-11T20:13:09.328Z,12.13
2023-02-11T20:15:37.141Z,11.17
2023-02-11T20:18:06.126Z,11.80
2023-02-11T20:20:33.675Z,11.80
2023-02-11T20:23:01.115Z,11.70
2023-02-11T20:25:28.531Z,13.47
2023-02-11T20:27:56.263Z,12.50
2023-02-11T20:30:23.735Z,11.37
2023-02-11T20:32:51.305Z,12.37
2023-02-11T20:35:20.213Z,12.57
2023-02-11T20:37:47.622Z,11.40
2023-02-11T20:40:15.040Z,11.63
2023-02-11T20:42:42.465Z,11.53
2023-02-11T20:45:10.326Z,10.90
2023-02-11T20:47:38.258Z,12.03
2023-02-11T20:50:06.709Z,10.93
2023-02-11T20:52:36.341Z,9.80
2023-02-11T20:55:03.794Z,12.10
2023-02-11T20:57:31.190Z,11.80
2023-02-11T20:59:58.718Z,11.17
2023-02-11T21:02:26.161Z,12.70
2023-02-11T21:04:53.584Z,10.83
2023-02-11T21:07:21.007Z,10.67
2023-02-11T21:09:49.819Z,11.33
2023-02-11T21:12:17.359Z,11.60
2023-02-11T21:14:45.010Z,12.17
2023-02-11T21:17:12.998Z,12.53
2023-02-11T21:19:41.359Z,13.03
2023-02-11T21:22:08.825Z,13.13
2023-02-11T21:24:36.244Z,12.47
2023-02-11T21:27:05.028Z,13.73
2023-02-11T21:29:35.162Z,12.03
2023-02-11T21:32:04.224Z,16.53
2023-02-11T21:34:31.636Z,11.43
2023-02-11T21:36:59.097Z,12.80
2023-02-11T21:39:26.832Z,12.80
2023-02-11T21:41:55.902Z,12.37
2023-02-11T21:44:24.727Z,14.77
2023-02-11T21:46:52.466Z,16.20
2023-02-11T21:49:20.173Z,12.80
2023-02-11T21:51:47.568Z,15.13
2023-02-11T21:54:15.088Z,14.63
2023-02-11T21:56:42.553Z,12.73
2023-02-11T21:59:13.305Z,14.60
2023-02-11T22:01:42.177Z,12.17
2023-02-11T22:04:10.759Z,15.00
2023-02-11T22:06:38.590Z,8.10
2023-02-11T22:09:07.631Z,4.93
2023-02-11T22:11:35.705Z,5.20
2023-02-11T22:14:03.186Z,6.50
2023-02-11T22:16:31.029Z,8.83
2023-02-11T22:19:02.242Z,6.90
2023-02-11T22:21:29.728Z,8.67
2023-02-11T22:23:57.684Z,8.20
2023-02-11T22:26:26.609Z,5.00
2023-02-11T22:28:54.884Z,8.07
2023-02-11T22:31:24.994Z,9.00
2023-02-11T22:33:53.056Z,7.70
2023-02-11T22:36:24.825Z,7.27
2023-02-11T22:38:52.719Z,6.43
2023-02-11T22:41:21.295Z,7.43
2023-02-11T22:43:49.309Z,7.43
2023-02-11T22:46:19.278Z,7.33
2023-02-11T22:48:47.292Z,7.53
2023-02-11T22:51:16.650Z,11.53
2023-02-11T22:53:49.956Z,13.00
2023-02-11T22:56:17.468Z,10.70
2023-02-11T22:58:45.322Z,15.60
2023-02-11T23:01:14.010Z,16.63
2023-02-11T23:03:41.685Z,15.67
2023-02-11T23:06:10.007Z,19.00
2023-02-11T23:08:39.607Z,14.23
2023-02-11T23:11:10.791Z,15.30
2023-02-11T23:13:40.543Z,15.37
2023-02-11T23:16:10.518Z,14.70
2023-02-11T23:18:39.744Z,16.63
2023-02-11T23:21:12.379Z,16.17
2023-02-11T23:23:40.284Z,16.63
2023-02-11T23:26:12.442Z,18.50
2023-02-11T23:28:40.297Z,17.87
2023-02-11T23:31:16.528Z,15.43
2023-02-11T23:33:44.523Z,17.33
2023-02-11T23:36:12.477Z,18.27
2023-02-11T23:38:40.287Z,20.27
2023-02-11T23:41:07.998Z,17.20
2023-02-11T23:43:36.788Z,18.20
2023-02-11T23:46:04.424Z,16.17
2023-02-11T23:48:31.960Z,19.13
2023-02-11T23:50:59.438Z,16.23
2023-02-11T23:53:26.980Z,16.80
2023-02-11T23:55:54.807Z,20.80
2023-02-11T23:58:22.384Z,20.80
